createdAt,value
2023-09-24T00:00:46.999Z,20.45
2023-09-24T00:03:13.854Z,20.29
2023-09-24T00:05:40.660Z,20.55
2023-09-24T00:08:07.338Z,19.93
2023-09-24T00:10:34.008Z,20.22
2023-09-24T00:13:00.651Z,20.27
2023-09-24T00:15:27.276Z,20.32
2023-09-24T00:17:54.011Z,20.34
2023-09-24T00:20:20.719Z,20.14
2023-09-24T00:22:47.368Z,19.99
2023-09-24T00:25:14.136Z,20.30
2023-09-24T00:27:40.752Z,20.20
2023-09-24T00:30:07.374Z,20.11
2023-09-24T00:32:34.093Z,20.19
2023-09-24T00:35:00.739Z,19.60
2023-09-24T00:37:27.335Z,19.74
2023-09-24T00:39:54.024Z,20.00
2023-09-24T00:42:20.679Z,20.39
2023-09-24T00:44:47.291Z,20.56
2023-09-24T00:47:14.031Z,20.54
2023-09-24T00:49:40.668Z,20.15
2023-09-24T00:52:07.306Z,20.33
2023-09-24T00:54:33.960Z,20.21
2023-09-24T00:57:00.645Z,20.52
2023-09-24T00:59:27.321Z,20.24
2023-09-24T01:01:54.014Z,20.42
2023-09-24T01:04:20.821Z,20.32
2023-09-24T01:06:47.503Z,20.54
2023-09-24T01:09:14.187Z,20.03
2023-09-24T01:11:40.805Z,20.25
2023-09-24T01:14:07.426Z,19.95
2023-09-24T01:16:34.082Z,19.96
2023-09-24T01:19:00.677Z,20.32
2023-09-24T01:21:27.545Z,20.32
2023-09-24T01:23:54.543Z,20.45
2023-09-24T01:26:21.332Z,20.49
2023-09-24T01:28:48.082Z,20.37
2023-09-24T01:31:14.773Z,19.99
2023-09-24T01:33:41.601Z,19.74
2023-09-24T01:36:08.387Z,19.38
2023-09-24T01:38:35.230Z,19.75
2023-09-24T01:41:02.039Z,19.76
2023-09-24T01:43:28.687Z,19.86
2023-09-24T01:45:55.354Z,19.98
2023-09-24T01:48:22.072Z,20.13
2023-09-24T01:50:48.788Z,20.16
2023-09-24T01:53:15.550Z,19.95
2023-09-24T01:55:42.299Z,20.11
2023-09-24T01:58:08.917Z,19.98
2023-09-24T02:00:35.652Z,20.01
2023-09-24T02:03:02.372Z,20.17
2023-09-24T02:05:29.091Z,19.86
2023-09-24T02:07:55.793Z,20.08
2023-09-24T02:10:22.397Z,20.17
2023-09-24T02:12:49.009Z,20.21
2023-09-24T02:15:15.663Z,19.90
2023-09-24T02:17:42.333Z,19.34
2023-09-24T02:20:09.009Z,19.32
2023-09-24T02:22:35.689Z,19.52
2023-09-24T02:25:02.290Z,19.54
2023-09-24T02:27:28.934Z,19.61
2023-09-24T02:29:55.658Z,19.95
2023-09-24T02:32:22.372Z,19.62
2023-09-24T02:34:49.005Z,19.86
2023-09-24T02:37:15.708Z,19.99
2023-09-24T02:39:42.320Z,19.74
2023-09-24T02:42:08.944Z,19.78
2023-09-24T02:44:35.652Z,19.73
2023-09-24T02:47:02.288Z,19.85
2023-09-24T02:49:28.928Z,19.29
2023-09-24T02:51:55.617Z,19.33
2023-09-24T02:54:22.238Z,19.64
2023-09-24T02:56:48.882Z,19.42
2023-09-24T02:59:15.559Z,19.05
2023-09-24T03:01:42.253Z,19.31
2023-09-24T03:04:09.154Z,19.58
2023-09-24T03:06:35.954Z,19.93
2023-09-24T03:09:02.664Z,19.82
2023-09-24T03:11:29.317Z,19.90
2023-09-24T03:13:56.213Z,19.37
2023-09-24T03:16:22.856Z,19.44
2023-09-24T03:18:49.743Z,19.86
2023-09-24T03:21:16.417Z,19.78
2023-09-24T03:23:43.060Z,19.70
2023-09-24T03:26:09.720Z,19.79
2023-09-24T03:28:36.389Z,19.73
2023-09-24T03:31:02.992Z,19.57
2023-09-24T03:33:29.759Z,19.47
2023-09-24T03:35:56.524Z,19.30
2023-09-24T03:38:23.193Z,19.37
2023-09-24T03:40:49.810Z,19.31
2023-09-24T03:43:16.530Z,20.00
2023-09-24T03:45:43.239Z,20.07
2023-09-24T03:48:09.876Z,19.57
2023-09-24T03:50:36.589Z,19.97
2023-09-24T03:53:03.234Z,19.87
2023-09-24T03:55:29.868Z,20.36
2023-09-24T03:57:56.526Z,19.93
2023-09-24T04:00:23.812Z,20.42
2023-09-24T04:02:51.497Z,20.66
2023-09-24T04:05:19.141Z,20.75
2023-09-24T04:07:47.986Z,20.82
2023-09-24T04:10:14.686Z,20.88
2023-09-24T04:12:41.398Z,20.56
2023-09-24T04:15:08.081Z,20.84
2023-09-24T04:17:34.774Z,20.91
2023-09-24T04:20:01.482Z,20.90
2023-09-24T04:22:28.100Z,20.55
2023-09-24T04:24:54.702Z,20.83
2023-09-24T04:27:21.346Z,21.07
2023-09-24T04:29:47.981Z,20.54
2023-09-24T04:32:14.615Z,20.64
2023-09-24T04:34:41.305Z,20.55
2023-09-24T04:37:07.938Z,20.11
2023-09-24T04:39:34.569Z,20.52
2023-09-24T04:42:01.268Z,20.19
2023-09-24T04:44:27.910Z,20.29
2023-09-24T04:46:54.559Z,20.49
2023-09-24T04:49:21.344Z,20.58
2023-09-24T04:51:48.121Z,20.34
2023-09-24T04:54:14.828Z,20.30
2023-09-24T04:56:41.509Z,20.66
2023-09-24T04:59:08.166Z,20.89
2023-09-24T05:01:34.812Z,20.67
2023-09-24T05:04:01.688Z,20.52
2023-09-24T05:06:28.545Z,20.91
2023-09-24T05:08:55.286Z,20.88
2023-09-24T05:11:21.991Z,20.69
2023-09-24T05:13:48.842Z,20.61
2023-09-24T05:16:15.637Z,20.56
2023-09-24T05:18:42.432Z,20.88
2023-09-24T05:21:09.173Z,20.61
2023-09-24T05:23:35.827Z,20.06
2023-09-24T05:26:02.558Z,20.23
2023-09-24T05:28:29.216Z,20.20
2023-09-24T05:30:55.872Z,20.06
2023-09-24T05:33:22.793Z,20.47
2023-09-24T05:35:49.711Z,20.63
2023-09-24T05:38:16.370Z,20.76
2023-09-24T05:40:43.014Z,20.67
2023-09-24T05:43:09.639Z,20.54
2023-09-24T05:45:36.293Z,20.07
2023-09-24T05:48:03.106Z,20.33
2023-09-24T05:50:29.924Z,20.63
2023-09-24T05:52:56.727Z,20.53
2023-09-24T05:55:23.474Z,20.67
2023-09-24T05:57:50.207Z,20.22
2023-09-24T06:00:16.851Z,20.20
2023-09-24T06:02:43.584Z,20.45
2023-09-24T06:05:10.234Z,20.19
2023-09-24T06:07:36.838Z,20.70
2023-09-24T06:10:03.476Z,20.81
2023-09-24T06:12:30.096Z,20.69
2023-09-24T06:14:56.790Z,20.99
2023-09-24T06:17:23.539Z,20.95
2023-09-24T06:19:50.516Z,21.25
2023-09-24T06:22:17.127Z,21.33
2023-09-24T06:24:43.809Z,21.10
2023-09-24T06:27:10.464Z,20.69
2023-09-24T06:29:37.168Z,20.99
2023-09-24T06:32:03.940Z,21.01
2023-09-24T06:34:30.597Z,20.86
2023-09-24T06:36:57.241Z,20.55
2023-09-24T06:39:23.886Z,20.80
2023-09-24T06:41:50.537Z,20.69
2023-09-24T06:44:17.201Z,20.72
2023-09-24T06:46:43.866Z,20.46
2023-09-24T06:49:10.517Z,20.70
2023-09-24T06:51:37.173Z,20.79
2023-09-24T06:54:03.912Z,20.53
2023-09-24T06:56:30.666Z,20.84
2023-09-24T06:58:57.282Z,20.90
2023-09-24T07:01:23.970Z,21.14
2023-09-24T07:03:50.821Z,20.89
2023-09-24T07:06:17.772Z,20.91
2023-09-24T07:08:44.579Z,20.55
2023-09-24T07:11:11.227Z,20.54
2023-09-24T07:13:37.825Z,20.98
2023-09-24T07:16:04.542Z,21.00
2023-09-24T07:18:31.295Z,20.60
2023-09-24T07:20:58.043Z,20.31
2023-09-24T07:23:24.755Z,20.73
2023-09-24T07:25:51.359Z,21.05
2023-09-24T07:28:18.003Z,20.60
2023-09-24T07:30:44.693Z,20.97
2023-09-24T07:33:11.426Z,20.67
2023-09-24T07:35:38.318Z,20.56
2023-09-24T07:38:05.493Z,20.79
2023-09-24T07:40:32.121Z,20.88
2023-09-24T07:42:58.772Z,20.83
2023-09-24T07:45:25.516Z,20.60
2023-09-24T07:47:52.338Z,20.95
2023-09-24T07:50:19.009Z,20.84
2023-09-24T07:52:45.672Z,21.11
2023-09-24T07:55:12.321Z,21.18
2023-09-24T07:57:38.961Z,21.05
2023-09-24T08:00:05.707Z,21.09
2023-09-24T08:02:32.434Z,21.17
2023-09-24T08:04:59.135Z,20.99
2023-09-24T08:07:25.923Z,20.50
2023-09-24T08:09:52.554Z,20.35
2023-09-24T08:12:19.185Z,20.27
2023-09-24T08:14:45.992Z,19.82
2023-09-24T08:17:12.785Z,19.72
2023-09-24T08:19:39.413Z,19.85
2023-09-24T08:22:06.118Z,19.53
2023-09-24T08:24:32.744Z,19.78
2023-09-24T08:26:59.393Z,19.51
2023-09-24T08:29:26.097Z,19.67
2023-09-24T08:31:52.739Z,19.91
2023-09-24T08:34:19.446Z,20.27
2023-09-24T08:36:46.123Z,20.17
2023-09-24T08:39:12.796Z,19.83
2023-09-24T08:41:39.509Z,19.60
2023-09-24T08:44:06.233Z,19.76
2023-09-24T08:46:32.975Z,19.82
2023-09-24T08:48:59.742Z,19.88
2023-09-24T08:51:27.339Z,19.68
2023-09-24T08:53:53.954Z,19.53
2023-09-24T08:56:20.623Z,19.58
2023-09-24T08:58:47.582Z,19.47
2023-09-24T09:01:14.433Z,19.63
2023-09-24T09:03:41.450Z,19.31
2023-09-24T09:06:08.574Z,19.14
2023-09-24T09:08:35.272Z,18.90
2023-09-24T09:11:01.919Z,18.54
2023-09-24T09:13:28.612Z,19.03
2023-09-24T09:15:55.224Z,19.48
2023-09-24T09:18:21.979Z,18.87
2023-09-24T09:20:48.768Z,19.17
2023-09-24T09:23:15.398Z,18.71
2023-09-24T09:25:42.012Z,18.10
2023-09-24T09:28:08.682Z,18.43
2023-09-24T09:30:35.294Z,18.34
2023-09-24T09:33:01.992Z,18.78
2023-09-24T09:35:28.708Z,18.31
2023-09-24T09:37:55.362Z,18.01
2023-09-24T09:40:21.989Z,17.91
2023-09-24T09:42:48.674Z,18.48
2023-09-24T09:45:15.334Z,18.69
2023-09-24T09:47:42.080Z,18.52
2023-09-24T09:50:08.792Z,18.82
2023-09-24T09:52:35.438Z,18.59
2023-09-24T09:55:02.110Z,18.90
2023-09-24T09:57:28.781Z,18.76
2023-09-24T09:59:55.461Z,19.10
2023-09-24T10:02:22.097Z,18.40
2023-09-24T10:04:48.761Z,18.44
2023-09-24T10:07:15.397Z,18.01
2023-09-24T10:09:42.035Z,18.38
2023-09-24T10:12:08.905Z,18.71
2023-09-24T10:14:35.617Z,18.88
2023-09-24T10:17:02.233Z,18.83
2023-09-24T10:19:28.931Z,18.74
2023-09-24T10:21:55.575Z,18.84
2023-09-24T10:24:22.287Z,18.70
2023-09-24T10:26:49.065Z,18.43
2023-09-24T10:29:15.780Z,18.54
2023-09-24T10:31:42.422Z,18.84
2023-09-24T10:34:09.218Z,18.54
2023-09-24T10:36:35.884Z,18.87
2023-09-24T10:39:02.601Z,19.20
2023-09-24T10:41:29.298Z,19.20
2023-09-24T10:43:55.939Z,19.45
2023-09-24T10:46:22.635Z,19.54
2023-09-24T10:48:50.432Z,19.46
2023-09-24T10:51:17.277Z,19.73
2023-09-24T10:53:43.961Z,20.08
2023-09-24T10:56:12.226Z,19.96
2023-09-24T10:58:39.077Z,20.10
2023-09-24T11:01:05.784Z,20.18
2023-09-24T11:03:32.668Z,19.84
2023-09-24T11:05:59.389Z,19.95
2023-09-24T11:08:26.047Z,20.27
2023-09-24T11:10:52.738Z,20.41
2023-09-24T11:13:19.382Z,20.36
2023-09-24T11:15:46.166Z,20.54
2023-09-24T11:18:13.020Z,20.32
2023-09-24T11:20:39.750Z,20.01
2023-09-24T11:23:06.446Z,20.17
2023-09-24T11:25:33.193Z,20.33
2023-09-24T11:27:59.881Z,20.16
2023-09-24T11:30:26.532Z,20.32
2023-09-24T11:32:53.341Z,20.64
2023-09-24T11:35:20.072Z,20.53
2023-09-24T11:37:46.709Z,20.49
2023-09-24T11:40:13.362Z,20.60
2023-09-24T11:42:39.980Z,20.30
2023-09-24T11:45:06.673Z,20.27
2023-09-24T11:47:33.418Z,20.15
2023-09-24T11:50:00.122Z,20.29
2023-09-24T11:52:26.813Z,19.42
2023-09-24T11:54:53.489Z,19.71
2023-09-24T11:57:20.155Z,19.62
2023-09-24T11:59:46.826Z,19.35
2023-09-24T12:02:13.516Z,19.53
2023-09-24T12:04:40.161Z,19.87
2023-09-24T12:07:06.802Z,20.07
2023-09-24T12:09:33.485Z,19.96
2023-09-24T12:12:00.209Z,19.94
2023-09-24T12:14:26.887Z,19.89
2023-09-24T12:16:53.559Z,19.94
2023-09-24T12:19:20.178Z,20.16
2023-09-24T12:21:46.822Z,20.10
2023-09-24T12:24:13.524Z,19.45
2023-09-24T12:26:40.184Z,19.68
2023-09-24T12:29:06.813Z,19.91
2023-09-24T12:31:33.559Z,19.61
2023-09-24T12:34:00.290Z,19.37
2023-09-24T12:36:26.987Z,19.72
2023-09-24T12:38:53.707Z,19.80
2023-09-24T12:41:20.398Z,19.45
2023-09-24T12:43:47.014Z,19.72
2023-09-24T12:46:13.794Z,19.44
2023-09-24T12:48:40.703Z,19.50
2023-09-24T12:51:07.500Z,19.66
2023-09-24T12:53:34.351Z,19.68
2023-09-24T12:56:00.977Z,19.59
2023-09-24T12:58:27.639Z,19.27
2023-09-24T13:00:54.294Z,19.52
2023-09-24T13:03:21.126Z,19.47
2023-09-24T13:05:47.943Z,19.51
2023-09-24T13:08:14.623Z,19.35
2023-09-24T13:10:41.235Z,19.52
2023-09-24T13:13:07.860Z,19.24
2023-09-24T13:15:34.535Z,19.02
2023-09-24T13:18:01.323Z,19.42
2023-09-24T13:20:28.028Z,19.22
2023-09-24T13:22:54.712Z,19.10
2023-09-24T13:25:21.338Z,19.22
2023-09-24T13:27:50.776Z,19.31
2023-09-24T13:30:17.563Z,19.21
2023-09-24T13:32:44.351Z,19.29
2023-09-24T13:35:11.025Z,19.35
2023-09-24T13:37:37.803Z,19.00
2023-09-24T13:40:04.422Z,19.08
2023-09-24T13:42:31.099Z,19.14
2023-09-24T13:44:57.790Z,19.15
2023-09-24T13:47:24.422Z,18.89
2023-09-24T13:49:51.049Z,19.17
2023-09-24T13:52:17.739Z,18.88
2023-09-24T13:54:44.377Z,18.54
2023-09-24T13:57:11.029Z,18.51
2023-09-24T13:59:37.761Z,18.50
2023-09-24T14:02:04.463Z,18.26
2023-09-24T14:04:31.186Z,18.48
2023-09-24T14:06:57.890Z,18.08
2023-09-24T14:09:24.584Z,18.24
2023-09-24T14:11:51.253Z,18.40
2023-09-24T14:14:17.951Z,18.19
2023-09-24T14:16:46.271Z,18.37
2023-09-24T14:19:15.498Z,18.54
2023-09-24T14:21:42.158Z,18.63
2023-09-24T14:24:08.854Z,18.95
2023-09-24T14:26:35.495Z,19.16
2023-09-24T14:29:02.147Z,19.00
2023-09-24T14:31:28.763Z,19.22
2023-09-24T14:33:55.450Z,19.15
2023-09-24T14:36:22.215Z,19.04
2023-09-24T14:38:48.904Z,19.02
2023-09-24T14:41:15.532Z,19.15
2023-09-24T14:43:42.228Z,18.95
2023-09-24T14:46:08.902Z,19.00
2023-09-24T14:48:35.688Z,19.02
2023-09-24T14:51:02.564Z,18.85
2023-09-24T14:53:29.254Z,18.94
2023-09-24T14:55:55.856Z,19.05
2023-09-24T14:58:22.544Z,19.02
2023-09-24T15:00:49.223Z,19.09
2023-09-24T15:03:15.997Z,19.13
2023-09-24T15:05:42.747Z,18.83
2023-09-24T15:08:09.382Z,18.43
2023-09-24T15:10:36.018Z,18.38
2023-09-24T15:13:02.734Z,18.57
2023-09-24T15:15:29.450Z,18.75
2023-09-24T15:17:56.213Z,18.61
2023-09-24T15:20:22.977Z,18.50
2023-09-24T15:22:49.753Z,18.26
2023-09-24T15:25:16.356Z,18.54
2023-09-24T15:27:43.006Z,18.69
2023-09-24T15:30:09.680Z,18.95
2023-09-24T15:32:36.396Z,19.05
2023-09-24T15:35:03.134Z,18.93
2023-09-24T15:37:29.777Z,18.93
2023-09-24T15:39:56.382Z,19.07
2023-09-24T15:42:23.115Z,19.15
2023-09-24T15:44:49.857Z,18.93
2023-09-24T15:47:16.585Z,19.10
2023-09-24T15:49:43.296Z,19.25
2023-09-24T15:52:09.907Z,18.92
2023-09-24T15:54:36.625Z,19.11
2023-09-24T15:57:03.458Z,19.31
2023-09-24T15:59:30.132Z,19.07
2023-09-24T16:01:56.779Z,19.07
2023-09-24T16:04:23.533Z,19.03
2023-09-24T16:06:50.183Z,19.17
2023-09-24T16:09:16.884Z,19.09
2023-09-24T16:11:43.617Z,19.01
2023-09-24T16:14:10.237Z,18.79
2023-09-24T16:16:37.004Z,18.86
2023-09-24T16:19:03.768Z,18.85
2023-09-24T16:21:30.432Z,18.89
2023-09-24T16:23:57.101Z,18.87
2023-09-24T16:26:23.816Z,18.89
2023-09-24T16:28:50.437Z,18.70
2023-09-24T16:31:17.084Z,18.72
2023-09-24T16:33:43.826Z,18.76
2023-09-24T16:36:10.567Z,18.59
2023-09-24T16:38:37.292Z,18.70
2023-09-24T16:41:03.966Z,18.77
2023-09-24T16:43:30.556Z,18.76
2023-09-24T16:45:57.220Z,18.83
2023-09-24T16:48:23.976Z,18.73
2023-09-24T16:50:50.697Z,18.92
2023-09-24T16:53:17.344Z,18.72
2023-09-24T16:55:44.032Z,18.65
2023-09-24T16:58:10.730Z,18.72
2023-09-24T17:00:37.347Z,18.49
2023-09-24T17:03:04.132Z,18.29
2023-09-24T17:05:30.843Z,18.40
2023-09-24T17:07:57.699Z,18.42
2023-09-24T17:10:24.360Z,18.50
2023-09-24T17:12:50.958Z,18.21
2023-09-24T17:15:17.596Z,18.38
2023-09-24T17:17:44.328Z,18.39
2023-09-24T17:20:10.999Z,18.44
2023-09-24T17:22:37.615Z,18.65
2023-09-24T17:25:04.380Z,18.69
2023-09-24T17:27:31.209Z,18.86
2023-09-24T17:29:57.857Z,18.98
2023-09-24T17:32:24.843Z,18.87
2023-09-24T17:34:51.699Z,18.75
2023-09-24T17:37:18.351Z,18.72
2023-09-24T17:39:45.020Z,18.70
2023-09-24T17:42:11.674Z,18.99
2023-09-24T17:44:38.318Z,18.98
2023-09-24T17:47:05.000Z,18.84
2023-09-24T17:49:31.648Z,18.76
2023-09-24T17:51:58.297Z,18.77
2023-09-24T17:54:25.022Z,18.83
2023-09-24T17:56:51.749Z,18.69
2023-09-24T17:59:18.378Z,18.90
2023-09-24T18:01:45.091Z,18.87
2023-09-24T18:04:11.786Z,18.75
2023-09-24T18:06:38.551Z,18.82
2023-09-24T18:09:05.241Z,18.61
2023-09-24T18:11:31.868Z,18.89
2023-09-24T18:13:58.613Z,18.86
2023-09-24T18:16:25.369Z,18.57
2023-09-24T18:18:52.065Z,18.68
2023-09-24T18:21:18.744Z,18.89
2023-09-24T18:23:45.443Z,18.74
2023-09-24T18:26:12.040Z,18.94
2023-09-24T18:28:38.692Z,18.43
2023-09-24T18:31:05.402Z,18.62
2023-09-24T18:33:32.079Z,18.82
2023-09-24T18:35:58.776Z,18.84
2023-09-24T18:38:25.564Z,18.82
2023-09-24T18:40:52.257Z,18.92
2023-09-24T18:43:18.873Z,18.66
2023-09-24T18:45:45.534Z,18.87
2023-09-24T18:48:12.218Z,18.92
2023-09-24T18:50:38.881Z,18.92
2023-09-24T18:53:05.876Z,18.96
2023-09-24T18:55:32.490Z,18.98
2023-09-24T18:57:59.107Z,18.94
2023-09-24T19:00:26.002Z,19.07
2023-09-24T19:02:53.010Z,19.06
2023-09-24T19:05:19.713Z,18.91
2023-09-24T19:07:46.367Z,18.70
2023-09-24T19:10:13.019Z,18.58
2023-09-24T19:12:39.673Z,18.66
2023-09-24T19:15:06.367Z,18.81
2023-09-24T19:17:33.051Z,18.73
2023-09-24T19:19:59.693Z,18.86
2023-09-24T19:22:26.393Z,18.86
2023-09-24T19:24:55.094Z,18.86
2023-09-24T19:27:21.725Z,18.83
2023-09-24T19:29:48.369Z,18.83
2023-09-24T19:32:15.041Z,18.92
2023-09-24T19:34:41.639Z,18.89
2023-09-24T19:37:08.287Z,18.96
2023-09-24T19:39:34.924Z,19.11
2023-09-24T19:42:01.646Z,19.10
2023-09-24T19:44:28.313Z,19.13
2023-09-24T19:46:55.091Z,18.92
2023-09-24T19:49:21.774Z,18.68
2023-09-24T19:51:48.437Z,18.83
2023-09-24T19:54:15.164Z,19.02
2023-09-24T19:56:41.877Z,19.10
2023-09-24T19:59:08.554Z,18.88
2023-09-24T20:01:35.255Z,18.81
2023-09-24T20:04:01.890Z,18.77
2023-09-24T20:06:28.561Z,18.75
2023-09-24T20:08:55.206Z,18.79
2023-09-24T20:11:21.897Z,18.69
2023-09-24T20:13:48.562Z,18.83
2023-09-24T20:16:15.277Z,18.63
2023-09-24T20:18:42.040Z,18.77
2023-09-24T20:21:08.763Z,18.88
2023-09-24T20:23:35.412Z,18.89
2023-09-24T20:26:02.026Z,18.84
2023-09-24T20:31:00.242Z,18.91
2023-09-24T20:33:33.907Z,19.09
2023-09-24T20:36:05.451Z,18.96
2023-09-24T20:38:32.094Z,18.90
2023-09-24T20:40:58.736Z,18.73
2023-09-24T20:43:25.382Z,18.70
2023-09-24T20:45:52.010Z,18.90
2023-09-24T20:48:18.743Z,19.09
2023-09-24T20:50:45.486Z,18.90
2023-09-24T20:53:12.193Z,18.75
2023-09-24T20:55:38.820Z,19.09
2023-09-24T20:58:05.508Z,19.17
2023-09-24T21:00:32.184Z,19.16
2023-09-24T21:02:58.929Z,19.08
2023-09-24T21:05:25.776Z,19.10
2023-09-24T21:07:52.444Z,19.07
2023-09-24T21:10:19.255Z,19.13
2023-09-24T21:12:45.935Z,18.94
2023-09-24T21:15:12.603Z,18.92
2023-09-24T21:17:39.245Z,18.93
2023-09-24T21:20:05.930Z,18.71
2023-09-24T21:22:32.584Z,18.92
2023-09-24T21:24:59.207Z,19.10
2023-09-24T21:27:26.129Z,18.98
2023-09-24T21:29:52.802Z,18.96
2023-09-24T21:32:19.433Z,18.87
2023-09-24T21:34:46.185Z,18.88
2023-09-24T21:37:12.804Z,18.88
2023-09-24T21:39:39.513Z,18.96
2023-09-24T21:42:06.263Z,19.00
2023-09-24T21:44:33.075Z,18.94
2023-09-24T21:46:59.726Z,19.00
2023-09-24T21:49:26.414Z,19.12
2023-09-24T21:51:53.139Z,19.21
2023-09-24T21:54:19.872Z,19.23
2023-09-24T21:56:46.592Z,19.25
2023-09-24T21:59:13.302Z,19.16
2023-09-24T22:01:39.987Z,19.21
2023-09-24T22:04:06.918Z,19.20
2023-09-24T22:06:33.747Z,19.28
2023-09-24T22:09:00.485Z,19.14
2023-09-24T22:11:27.264Z,19.20
2023-09-24T22:13:53.886Z,19.11
2023-09-24T22:16:20.515Z,19.06
2023-09-24T22:18:47.453Z,19.17
2023-09-24T22:21:14.216Z,19.08
2023-09-24T22:23:40.833Z,18.87
2023-09-24T22:26:07.503Z,18.88
2023-09-24T22:28:34.107Z,18.76
2023-09-24T22:31:00.740Z,18.70
2023-09-24T22:33:27.450Z,18.72
2023-09-24T22:35:54.112Z,18.80
2023-09-24T22:38:20.711Z,18.78
2023-09-24T22:40:47.399Z,18.75
2023-09-24T22:43:25.712Z,18.51
2023-09-24T22:45:54.036Z,18.75
2023-09-24T22:48:20.965Z,18.73
2023-09-24T22:50:47.665Z,18.74
2023-09-24T22:53:14.337Z,18.92
2023-09-24T22:55:40.950Z,18.82
2023-09-24T22:58:09.819Z,18.58
2023-09-24T23:00:36.788Z,18.86
2023-09-24T23:03:03.523Z,18.92
2023-09-24T23:05:30.346Z,18.59
2023-09-24T23:07:57.002Z,18.92
2023-09-24T23:10:23.773Z,18.71
2023-09-24T23:12:50.378Z,18.84
2023-09-24T23:15:17.113Z,18.97
2023-09-24T23:17:43.807Z,19.11
2023-09-24T23:20:10.430Z,19.18
2023-09-24T23:22:37.125Z,19.04
2023-09-24T23:25:03.773Z,19.04
2023-09-24T23:27:30.453Z,19.24
2023-09-24T23:29:57.149Z,19.26
2023-09-24T23:32:23.775Z,19.00
2023-09-24T23:34:50.382Z,19.08
2023-09-24T23:37:17.068Z,19.26
2023-09-24T23:39:43.695Z,19.31
2023-09-24T23:42:10.336Z,19.24
2023-09-24T23:44:37.030Z,19.29
2023-09-24T23:47:03.647Z,19.33
2023-09-24T23:49:30.246Z,19.16
2023-09-24T23:51:57.002Z,19.21
2023-09-24T23:54:23.738Z,19.21
2023-09-24T23:56:50.374Z,19.12
2023-09-24T23:59:17.055Z,19.22
